createdAt,value
2018-12-05T00:00:10.148Z,1.20
2018-12-05T00:02:38.642Z,1.20
2018-12-05T00:05:07.090Z,1.20
2018-12-05T00:07:35.362Z,1.20
2018-12-05T00:17:00.218Z,1.20
2018-12-05T00:19:28.415Z,1.20
2018-12-05T00:21:57.639Z,1.10
2018-12-05T00:24:25.937Z,1.10
2018-12-05T00:26:54.158Z,1.10
2018-12-05T00:29:22.371Z,1.10
2018-12-05T00:31:50.799Z,1.10
2018-12-05T00:34:18.996Z,1.10
2018-12-05T00:36:47.212Z,1.10
2018-12-05T00:39:15.419Z,1.00
2018-12-05T00:41:43.731Z,1.00
2018-12-05T00:44:11.915Z,1.10
2018-12-05T00:46:40.261Z,1.10
2018-12-05T00:49:08.443Z,1.10
2018-12-05T00:51:36.653Z,1.10
2018-12-05T00:54:05.053Z,1.10
2018-12-05T00:56:33.259Z,1.00
2018-12-05T00:59:01.452Z,1.00
2018-12-05T01:01:29.669Z,1.00
2018-12-05T01:03:57.946Z,1.00
2018-12-05T01:06:26.156Z,1.00
2018-12-05T01:08:54.353Z,1.00
2018-12-05T01:11:23.715Z,1.00
2018-12-05T01:13:52.204Z,1.00
2018-12-05T01:16:20.431Z,0.90
2018-12-05T01:18:48.646Z,0.90
2018-12-05T01:21:16.874Z,0.90
2018-12-05T01:23:45.156Z,0.80
2018-12-05T01:26:13.359Z,0.80
2018-12-05T01:28:41.648Z,0.80
2018-12-05T01:31:09.951Z,0.80
2018-12-05T01:33:38.150Z,0.70
2018-12-05T01:36:07.387Z,0.70
2018-12-05T01:38:35.606Z,0.70
2018-12-05T01:41:03.951Z,0.70
2018-12-05T01:43:37.426Z,0.70
2018-12-05T01:46:05.637Z,0.70
2018-12-05T01:48:33.855Z,0.60
2018-12-05T01:51:02.029Z,0.60
2018-12-05T01:53:30.340Z,0.60
2018-12-05T01:55:58.539Z,0.60
2018-12-05T01:58:26.753Z,0.60
2018-12-05T02:00:54.963Z,0.60
2018-12-05T02:03:23.219Z,0.60
2018-12-05T02:05:51.414Z,0.60
2018-12-05T02:08:19.716Z,0.60
2018-12-05T02:10:47.904Z,0.60
2018-12-05T02:13:16.106Z,0.60
2018-12-05T02:15:44.303Z,0.60
2018-12-05T02:18:12.519Z,0.60
2018-12-05T02:20:40.695Z,0.60
2018-12-05T02:23:08.995Z,0.60
2018-12-05T02:25:37.167Z,0.60
2018-12-05T02:28:05.460Z,0.70
2018-12-05T02:30:33.722Z,0.60
2018-12-05T02:33:01.955Z,0.60
2018-12-05T02:35:30.180Z,0.70
2018-12-05T02:37:58.470Z,0.60
2018-12-05T02:40:26.688Z,0.70
2018-12-05T02:42:54.898Z,0.70
2018-12-05T02:45:23.091Z,0.70
2018-12-05T02:47:51.670Z,0.70
2018-12-05T02:50:19.877Z,0.70
2018-12-05T02:53:50.960Z,0.70
2018-12-05T02:56:19.308Z,0.70
2018-12-05T02:58:47.615Z,0.70
2018-12-05T03:01:15.849Z,0.70
2018-12-05T03:03:44.052Z,0.70
2018-12-05T03:06:12.242Z,0.70
2018-12-05T03:08:40.465Z,0.70
2018-12-05T03:11:08.645Z,0.70
2018-12-05T03:13:36.850Z,0.70
2018-12-05T03:16:05.039Z,0.70
2018-12-05T03:18:33.234Z,0.70
2018-12-05T03:21:01.411Z,1.30
2018-12-05T03:23:29.616Z,0.80
2018-12-05T03:25:57.795Z,0.80
2018-12-05T03:28:26.009Z,0.80
2018-12-05T03:30:54.284Z,0.80
2018-12-05T03:33:22.968Z,0.80
2018-12-05T03:35:51.143Z,0.80
2018-12-05T03:38:19.380Z,0.80
2018-12-05T03:40:47.752Z,0.80
2018-12-05T03:43:16.059Z,0.80
2018-12-05T03:45:44.260Z,0.80
2018-12-05T03:48:12.472Z,0.80
2018-12-05T03:50:40.655Z,0.80
2018-12-05T03:53:08.855Z,0.80
2018-12-05T03:55:37.095Z,0.80
2018-12-05T03:58:05.684Z,0.90
2018-12-05T04:00:33.877Z,0.80
2018-12-05T04:03:02.093Z,0.80
2018-12-05T04:05:30.274Z,0.80
2018-12-05T04:07:58.471Z,0.90
2018-12-05T04:10:26.752Z,0.90
2018-12-05T04:12:54.923Z,0.90
2018-12-05T04:15:23.224Z,0.90
2018-12-05T04:17:51.409Z,0.90
2018-12-05T04:20:19.620Z,0.90
2018-12-05T04:22:47.798Z,0.90
2018-12-05T04:25:16.187Z,0.90
2018-12-05T04:27:45.363Z,0.90
2018-12-05T04:30:13.648Z,0.90
2018-12-05T04:32:41.868Z,0.90
2018-12-05T04:35:10.075Z,0.90
2018-12-05T04:37:38.259Z,0.90
2018-12-05T04:40:06.647Z,0.90
2018-12-05T04:42:34.914Z,0.90
2018-12-05T04:45:03.287Z,0.90
2018-12-05T04:47:31.496Z,1.00
2018-12-05T04:49:59.694Z,1.00
2018-12-05T04:52:27.875Z,1.30
2018-12-05T04:54:56.165Z,1.00
2018-12-05T04:57:24.415Z,1.10
2018-12-05T04:59:52.625Z,1.10
2018-12-05T05:02:20.912Z,1.10
2018-12-05T05:04:49.114Z,1.10
2018-12-05T05:07:17.410Z,1.10
2018-12-05T05:09:45.708Z,1.20
2018-12-05T05:12:13.988Z,1.20
2018-12-05T05:14:42.246Z,1.20
2018-12-05T05:17:10.457Z,1.20
2018-12-05T05:19:38.760Z,1.30
2018-12-05T05:22:06.998Z,1.30
2018-12-05T05:24:35.222Z,1.30
2018-12-05T05:27:03.477Z,1.40
2018-12-05T05:29:31.722Z,1.40
2018-12-05T05:31:59.983Z,1.50
2018-12-05T05:34:28.202Z,1.50
2018-12-05T05:36:56.397Z,1.60
2018-12-05T05:39:24.619Z,1.80
2018-12-05T05:41:52.784Z,1.90
2018-12-05T05:44:20.980Z,2.10
2018-12-05T05:46:49.239Z,2.30
2018-12-05T05:49:17.488Z,2.40
2018-12-05T05:51:45.672Z,2.50
2018-12-05T05:54:13.870Z,2.60
2018-12-05T05:56:42.043Z,2.80
2018-12-05T05:59:10.256Z,2.90
2018-12-05T06:01:38.644Z,3.00
2018-12-05T06:04:06.855Z,3.10
2018-12-05T06:06:36.437Z,3.20
2018-12-05T06:09:07.294Z,3.30
2018-12-05T06:11:35.492Z,3.40
2018-12-05T06:14:03.755Z,3.50
2018-12-05T06:16:31.949Z,3.60
2018-12-05T06:19:01.111Z,3.70
2018-12-05T06:21:29.404Z,3.80
2018-12-05T06:23:57.583Z,3.90
2018-12-05T06:26:26.628Z,3.90
2018-12-05T06:28:55.925Z,4.00
2018-12-05T06:31:24.216Z,4.10
2018-12-05T06:33:52.418Z,4.10
2018-12-05T06:36:20.663Z,4.20
2018-12-05T06:38:49.065Z,4.20
2018-12-05T06:41:17.304Z,4.30
2018-12-05T06:43:45.487Z,4.30
2018-12-05T06:48:56.383Z,4.40
2018-12-05T06:51:24.600Z,4.50
2018-12-05T06:53:52.875Z,4.50
2018-12-05T06:56:21.096Z,4.60
2018-12-05T06:58:49.292Z,4.70
2018-12-05T07:01:17.521Z,4.70
2018-12-05T07:03:45.706Z,4.80
2018-12-05T07:06:13.956Z,4.80
2018-12-05T07:08:42.143Z,4.80
2018-12-05T07:11:10.479Z,4.80
2018-12-05T07:13:38.716Z,4.90
2018-12-05T07:16:07.007Z,4.90
2018-12-05T07:18:35.242Z,4.90
2018-12-05T07:21:03.585Z,4.90
2018-12-05T07:23:31.900Z,5.00
2018-12-05T07:26:00.098Z,5.00
2018-12-05T07:28:28.356Z,5.00
2018-12-05T07:30:56.551Z,5.00
2018-12-05T07:33:27.879Z,5.00
2018-12-05T07:35:56.055Z,5.00
2018-12-05T07:38:24.407Z,5.10
2018-12-05T07:40:52.583Z,5.10
2018-12-05T07:43:20.780Z,5.10
2018-12-05T07:45:48.977Z,5.10
2018-12-05T07:48:17.270Z,5.10
2018-12-05T07:50:45.684Z,5.10
2018-12-05T07:53:13.859Z,5.10
2018-12-05T07:55:42.161Z,5.20
2018-12-05T07:58:10.341Z,5.20
2018-12-05T08:00:38.654Z,5.20
2018-12-05T08:03:06.847Z,5.20
2018-12-05T08:05:35.453Z,5.30
2018-12-05T08:08:03.716Z,5.30
2018-12-05T08:10:31.905Z,5.30
2018-12-05T08:13:00.119Z,5.30
2018-12-05T08:15:28.312Z,5.40
2018-12-05T08:17:56.492Z,5.40
2018-12-05T08:20:24.692Z,5.40
2018-12-05T08:22:52.971Z,5.40
2018-12-05T08:25:22.054Z,5.40
2018-12-05T08:27:51.084Z,5.40
2018-12-05T08:30:21.037Z,5.40
2018-12-05T08:32:50.094Z,5.40
2018-12-05T08:35:19.298Z,5.50
2018-12-05T08:37:49.239Z,5.50
2018-12-05T08:40:18.159Z,5.50
2018-12-05T08:42:47.242Z,5.60
2018-12-05T08:45:16.383Z,5.70
2018-12-05T08:47:45.425Z,5.70
2018-12-05T08:50:14.397Z,5.80
2018-12-05T08:52:43.066Z,5.80
2018-12-05T08:55:11.243Z,5.90
2018-12-05T08:57:39.455Z,5.90
2018-12-05T09:00:08.979Z,6.00
2018-12-05T09:02:37.201Z,6.00
2018-12-05T09:05:05.968Z,6.00
2018-12-05T09:07:34.199Z,6.10
2018-12-05T09:10:02.552Z,6.10
2018-12-05T09:12:30.783Z,6.10
2018-12-05T09:14:58.964Z,6.20
2018-12-05T09:17:27.215Z,6.20
2018-12-05T09:19:55.445Z,6.30
2018-12-05T09:22:23.682Z,6.40
2018-12-05T09:24:54.487Z,6.40
2018-12-05T09:27:23.017Z,6.40
2018-12-05T09:29:51.334Z,6.50
2018-12-05T09:32:19.658Z,6.50
2018-12-05T09:34:47.850Z,6.60
2018-12-05T09:37:16.031Z,6.60
2018-12-05T09:39:44.223Z,6.60
2018-12-05T09:42:12.446Z,6.60
2018-12-05T09:44:40.626Z,6.70
2018-12-05T09:47:15.735Z,6.70
2018-12-05T09:49:39.323Z,6.80
2018-12-05T09:52:07.571Z,6.80
2018-12-05T09:54:35.828Z,6.80
2018-12-05T09:57:04.039Z,6.90
2018-12-05T09:59:32.212Z,6.90
2018-12-05T10:02:00.933Z,6.90
2018-12-05T10:04:29.140Z,7.00
2018-12-05T10:06:57.556Z,7.00
2018-12-05T10:09:26.741Z,6.90
2018-12-05T10:11:54.952Z,7.10
2018-12-05T10:14:23.160Z,7.10
2018-12-05T10:16:51.371Z,7.10
2018-12-05T10:19:19.652Z,7.10
2018-12-05T10:21:47.875Z,7.20
2018-12-05T10:24:16.131Z,7.20
2018-12-05T10:26:44.323Z,7.30
2018-12-05T10:29:12.500Z,7.30
2018-12-05T10:31:44.072Z,7.30
2018-12-05T10:34:10.871Z,7.30
2018-12-05T10:36:39.154Z,7.40
2018-12-05T10:39:07.691Z,7.40
2018-12-05T10:41:35.938Z,7.40
2018-12-05T10:44:04.323Z,7.40
2018-12-05T10:46:32.532Z,7.50
2018-12-05T10:49:00.713Z,7.50
2018-12-05T10:51:29.313Z,7.50
2018-12-05T10:53:57.477Z,7.60
2018-12-05T10:56:25.762Z,7.60
2018-12-05T10:58:53.957Z,7.70
2018-12-05T11:01:28.303Z,7.70
2018-12-05T11:03:56.460Z,7.70
2018-12-05T11:06:30.199Z,7.80
2018-12-05T11:09:04.996Z,7.90
2018-12-05T11:11:38.821Z,7.90
2018-12-05T11:14:13.598Z,8.00
2018-12-05T11:16:49.654Z,8.10
2018-12-05T11:19:23.352Z,8.20
2018-12-05T11:21:57.303Z,8.40
2018-12-05T11:24:30.981Z,8.50
2018-12-05T11:26:59.172Z,8.60
2018-12-05T11:29:27.351Z,8.70
2018-12-05T11:31:55.549Z,8.70
2018-12-05T11:34:23.772Z,8.70
2018-12-05T11:36:51.975Z,8.70
2018-12-05T11:39:20.141Z,8.80
2018-12-05T11:41:48.344Z,8.80
2018-12-05T11:44:16.495Z,8.80
2018-12-05T11:46:44.701Z,8.80
2018-12-05T11:49:12.881Z,8.90
2018-12-05T11:51:41.088Z,9.00
2018-12-05T11:54:09.283Z,9.00
2018-12-05T11:56:37.450Z,9.00
2018-12-05T11:59:05.736Z,9.10
2018-12-05T12:01:33.927Z,9.10
2018-12-05T12:04:02.311Z,9.10
2018-12-05T12:06:30.536Z,9.10
2018-12-05T12:08:58.795Z,9.10
2018-12-05T12:11:26.991Z,9.10
2018-12-05T12:13:55.276Z,9.10
2018-12-05T12:16:23.568Z,9.10
2018-12-05T12:18:51.782Z,9.00
2018-12-05T12:21:19.991Z,9.00
2018-12-05T12:23:48.211Z,9.10
2018-12-05T12:26:16.521Z,9.10
2018-12-05T12:28:46.808Z,9.10
2018-12-05T12:31:14.980Z,9.10
2018-12-05T12:33:43.226Z,9.10
2018-12-05T12:36:13.938Z,9.10
2018-12-05T12:38:42.184Z,9.10
2018-12-05T12:41:10.476Z,9.20
2018-12-05T12:43:38.652Z,9.20
2018-12-05T12:46:06.836Z,9.20
2018-12-05T12:48:35.032Z,9.20
2018-12-05T12:51:09.963Z,9.20
2018-12-05T12:53:38.163Z,9.20
2018-12-05T12:56:06.340Z,9.10
2018-12-05T12:58:34.538Z,9.10
2018-12-05T13:01:02.725Z,9.10
2018-12-05T13:03:31.240Z,9.10
2018-12-05T13:05:59.511Z,9.20
2018-12-05T13:08:27.718Z,9.10
2018-12-05T13:10:55.903Z,9.10
2018-12-05T13:13:24.108Z,9.10
2018-12-05T13:15:52.279Z,9.10
2018-12-05T13:18:20.564Z,9.10
2018-12-05T13:20:48.740Z,9.10
2018-12-05T13:23:16.936Z,9.10
2018-12-05T13:25:45.113Z,9.10
2018-12-05T13:28:13.366Z,9.10
2018-12-05T13:30:41.587Z,9.00
2018-12-05T13:33:09.797Z,9.00
2018-12-05T13:35:38.073Z,9.00
2018-12-05T13:38:06.267Z,9.00
2018-12-05T13:40:34.432Z,9.00
2018-12-05T13:43:03.919Z,9.00
2018-12-05T13:45:32.193Z,9.00
2018-12-05T13:48:00.485Z,8.90
2018-12-05T13:50:29.253Z,8.90
2018-12-05T13:52:58.310Z,8.80
2018-12-05T13:55:26.635Z,8.80
2018-12-05T13:57:54.811Z,8.80
2018-12-05T14:00:23.102Z,8.80
2018-12-05T14:02:51.288Z,8.80
2018-12-05T14:05:19.495Z,8.70
2018-12-05T14:07:47.707Z,8.70
2018-12-05T14:10:15.991Z,8.70
2018-12-05T14:12:44.162Z,8.70
2018-12-05T14:15:12.495Z,8.70
2018-12-05T14:17:40.681Z,8.70
2018-12-05T14:20:09.382Z,8.70
2018-12-05T14:22:37.567Z,8.60
2018-12-05T14:25:07.267Z,8.60
2018-12-05T14:27:35.612Z,8.60
2018-12-05T14:30:04.646Z,8.60
2018-12-05T14:32:33.225Z,8.60
2018-12-05T14:35:01.445Z,8.60
2018-12-05T14:37:29.688Z,8.60
2018-12-05T14:39:57.881Z,8.60
2018-12-05T14:42:26.064Z,8.60
2018-12-05T14:44:54.387Z,8.60
2018-12-05T14:47:22.799Z,8.60
2018-12-05T14:49:51.032Z,8.60
2018-12-05T14:52:19.303Z,8.50
2018-12-05T14:54:47.595Z,8.50
2018-12-05T14:57:15.828Z,8.50
2018-12-05T14:59:44.067Z,8.50
2018-12-05T15:02:12.346Z,8.50
2018-12-05T15:04:40.553Z,8.50
2018-12-05T15:07:08.759Z,8.50
2018-12-05T15:09:36.967Z,8.50
2018-12-05T15:12:05.139Z,8.50
2018-12-05T15:14:33.341Z,8.40
2018-12-05T15:17:02.343Z,8.40
2018-12-05T15:19:30.547Z,8.40
2018-12-05T15:21:58.735Z,8.40
2018-12-05T15:24:27.115Z,8.40
2018-12-05T15:26:55.516Z,8.40
2018-12-05T15:29:25.682Z,8.40
2018-12-05T15:31:54.032Z,8.40
2018-12-05T15:34:22.320Z,8.50
2018-12-05T15:36:50.868Z,8.40
2018-12-05T15:39:19.132Z,8.40
2018-12-05T15:41:47.324Z,8.50
2018-12-05T15:44:15.517Z,8.50
2018-12-05T15:46:43.736Z,8.40
2018-12-05T15:49:11.908Z,8.50
2018-12-05T15:51:40.144Z,8.50
2018-12-05T15:54:08.322Z,8.50
2018-12-05T15:56:36.611Z,8.50
2018-12-05T15:59:05.871Z,8.50
2018-12-05T16:01:34.055Z,8.50
2018-12-05T16:04:02.231Z,8.50
2018-12-05T16:06:30.439Z,8.50
2018-12-05T16:08:58.711Z,8.50
2018-12-05T16:11:26.926Z,8.50
2018-12-05T16:13:55.103Z,8.50
2018-12-05T16:16:23.296Z,8.50
2018-12-05T16:18:51.493Z,8.50
2018-12-05T16:21:19.692Z,8.50
2018-12-05T16:23:47.872Z,8.50
2018-12-05T16:26:16.260Z,8.50
2018-12-05T16:28:44.427Z,8.50
2018-12-05T16:31:12.703Z,8.60
2018-12-05T16:33:40.942Z,8.50
2018-12-05T16:36:11.341Z,8.50
2018-12-05T16:38:39.413Z,8.60
2018-12-05T16:41:07.648Z,8.50
2018-12-05T16:43:35.821Z,8.50
2018-12-05T16:46:04.224Z,8.50
2018-12-05T16:48:32.426Z,8.50
2018-12-05T16:51:00.647Z,8.50
2018-12-05T16:53:28.836Z,8.50
2018-12-05T16:55:57.055Z,8.50
2018-12-05T16:58:25.256Z,8.60
2018-12-05T17:00:53.470Z,8.60
2018-12-05T17:03:22.806Z,8.60
2018-12-05T17:05:51.002Z,8.60
2018-12-05T17:08:19.191Z,8.60
2018-12-05T17:10:47.490Z,8.60
2018-12-05T17:13:15.761Z,8.60
2018-12-05T17:15:44.002Z,8.70
2018-12-05T17:18:12.503Z,8.60
2018-12-05T17:20:40.835Z,8.60
2018-12-05T17:23:09.115Z,8.60
2018-12-05T17:25:37.602Z,8.60
2018-12-05T17:28:05.868Z,8.60
2018-12-05T17:30:34.198Z,8.60
2018-12-05T17:33:02.526Z,8.60
2018-12-05T17:35:30.708Z,8.60
2018-12-05T17:37:58.912Z,8.70
2018-12-05T17:40:27.279Z,8.70
2018-12-05T17:42:55.562Z,8.70
2018-12-05T17:45:24.551Z,8.80
2018-12-05T17:47:52.855Z,8.80
2018-12-05T17:50:21.049Z,8.80
2018-12-05T17:52:49.271Z,8.80
2018-12-05T17:55:20.582Z,8.80
2018-12-05T17:57:48.785Z,8.90
2018-12-05T18:00:17.061Z,8.80
2018-12-05T18:02:45.300Z,8.80
2018-12-05T18:05:13.673Z,8.80
2018-12-05T18:07:42.340Z,8.90
2018-12-05T18:10:10.732Z,8.90
2018-12-05T18:12:38.999Z,8.90
2018-12-05T18:15:07.376Z,8.90
2018-12-05T18:17:35.656Z,8.90
2018-12-05T18:20:04.315Z,8.90
2018-12-05T18:22:33.214Z,8.90
2018-12-05T18:25:01.440Z,9.00
2018-12-05T18:27:29.762Z,9.00
2018-12-05T18:29:58.046Z,9.00
2018-12-05T18:32:26.333Z,9.00
2018-12-05T18:34:54.581Z,9.10
2018-12-05T18:37:22.771Z,9.10
2018-12-05T18:39:51.000Z,9.10
2018-12-05T18:42:19.547Z,9.20
2018-12-05T18:44:47.826Z,9.20
2018-12-05T18:47:16.180Z,9.20
2018-12-05T18:49:47.979Z,9.30
2018-12-05T18:52:16.386Z,9.30
2018-12-05T18:54:44.697Z,9.30
2018-12-05T18:57:13.398Z,9.40
2018-12-05T18:59:41.579Z,9.40
2018-12-05T19:02:09.884Z,9.50
2018-12-05T19:04:38.288Z,9.40
2018-12-05T19:07:06.617Z,9.40
2018-12-05T19:09:34.889Z,9.40
2018-12-05T19:12:03.301Z,9.40
2018-12-05T19:14:36.911Z,9.40
2018-12-05T19:17:05.208Z,9.40
2018-12-05T19:19:33.402Z,9.40
2018-12-05T19:22:01.657Z,9.40
2018-12-05T19:24:29.852Z,9.30
2018-12-05T19:27:01.114Z,9.30
2018-12-05T19:29:29.343Z,9.30
2018-12-05T19:31:57.583Z,9.30
2018-12-05T19:34:26.800Z,9.20
2018-12-05T19:36:55.024Z,9.20
2018-12-05T19:39:24.524Z,9.20
2018-12-05T19:41:54.524Z,9.10
2018-12-05T19:44:25.745Z,9.10
2018-12-05T19:46:55.781Z,9.10
2018-12-05T19:49:27.212Z,9.10
2018-12-05T19:51:56.381Z,9.10
2018-12-05T19:54:26.705Z,9.20
2018-12-05T19:56:55.568Z,9.20
2018-12-05T19:59:25.620Z,9.20
2018-12-05T20:01:54.646Z,9.20
2018-12-05T20:04:23.399Z,9.30
2018-12-05T20:06:52.092Z,9.30
2018-12-05T20:09:26.275Z,9.30
2018-12-05T20:11:54.835Z,9.40
2018-12-05T20:14:30.300Z,9.40
2018-12-05T20:16:59.258Z,9.30
2018-12-05T20:19:27.511Z,9.30
2018-12-05T20:21:55.851Z,9.30
2018-12-05T20:24:24.031Z,9.30
2018-12-05T20:26:53.695Z,9.30
2018-12-05T20:29:21.911Z,9.20
2018-12-05T20:31:50.157Z,9.30
2018-12-05T20:34:18.453Z,9.30
2018-12-05T20:36:46.703Z,9.20
2018-12-05T20:39:14.875Z,9.20
2018-12-05T20:41:45.511Z,9.20
2018-12-05T20:44:13.709Z,9.20
2018-12-05T20:46:41.939Z,9.20
2018-12-05T20:49:11.610Z,9.20
2018-12-05T20:51:39.875Z,9.20
2018-12-05T20:54:08.073Z,9.10
2018-12-05T20:56:36.323Z,9.20
2018-12-05T20:59:04.626Z,9.10
2018-12-05T21:01:33.419Z,9.10
2018-12-05T21:04:16.521Z,9.20
2018-12-05T21:06:44.732Z,9.20
2018-12-05T21:09:13.016Z,9.20
2018-12-05T21:11:41.226Z,9.20
2018-12-05T21:14:09.491Z,9.20
2018-12-05T21:16:37.799Z,9.30
2018-12-05T21:19:06.094Z,9.30
2018-12-05T21:21:34.315Z,9.40
2018-12-05T21:24:02.538Z,9.40
2018-12-05T21:26:30.747Z,9.40
2018-12-05T21:29:13.759Z,9.40
2018-12-05T21:31:42.068Z,9.50
2018-12-05T21:34:10.285Z,9.50
2018-12-05T21:36:38.506Z,9.50
2018-12-05T21:39:08.768Z,9.50
2018-12-05T21:41:37.043Z,9.50
2018-12-05T21:44:05.472Z,9.50
2018-12-05T21:46:33.648Z,9.40
2018-12-05T21:49:02.076Z,9.40
2018-12-05T21:51:30.318Z,9.40
2018-12-05T21:53:58.511Z,9.40
2018-12-05T21:59:24.968Z,9.40
2018-12-05T22:01:53.148Z,9.50
2018-12-05T22:04:21.460Z,9.50
2018-12-05T22:06:49.683Z,9.50
2018-12-05T22:09:17.884Z,9.60
2018-12-05T22:11:46.244Z,9.60
2018-12-05T22:14:14.516Z,9.60
2018-12-05T22:16:42.712Z,9.70
2018-12-05T22:19:10.942Z,9.70
2018-12-05T22:21:39.212Z,9.70
2018-12-05T22:24:07.434Z,9.80
2018-12-05T22:26:35.727Z,9.80
2018-12-05T22:29:04.147Z,9.80
2018-12-05T22:31:32.328Z,9.80
2018-12-05T22:34:00.540Z,9.80
2018-12-05T22:36:30.099Z,9.80
2018-12-05T22:38:58.564Z,9.80
2018-12-05T22:41:26.865Z,9.70
2018-12-05T22:43:55.240Z,9.80
2018-12-05T22:46:23.457Z,9.80
2018-12-05T22:48:51.742Z,9.80
2018-12-05T22:51:20.047Z,9.80
2018-12-05T22:53:48.283Z,9.90
2018-12-05T22:56:16.467Z,9.90
2018-12-05T22:58:45.060Z,9.90
2018-12-05T23:01:13.515Z,9.90
2018-12-05T23:03:41.874Z,10.00
2018-12-05T23:06:10.151Z,10.00
2018-12-05T23:08:39.057Z,10.00
2018-12-05T23:11:07.235Z,10.00
2018-12-05T23:13:35.617Z,10.10
2018-12-05T23:16:05.607Z,10.10
2018-12-05T23:18:33.900Z,10.10
2018-12-05T23:21:02.098Z,10.20
2018-12-05T23:23:30.333Z,10.10
2018-12-05T23:25:58.552Z,10.20
2018-12-05T23:28:26.747Z,10.20
2018-12-05T23:30:54.934Z,10.20
2018-12-05T23:33:23.140Z,10.10
2018-12-05T23:35:51.323Z,10.20
2018-12-05T23:38:19.538Z,10.10
2018-12-05T23:40:47.712Z,10.10
2018-12-05T23:43:16.104Z,10.00
2018-12-05T23:45:44.323Z,10.00
2018-12-05T23:48:13.784Z,9.90
2018-12-05T23:50:42.564Z,9.80
2018-12-05T23:53:10.826Z,9.80
2018-12-05T23:55:39.436Z,9.70
2018-12-05T23:58:07.648Z,9.60
